Time;durP1;ratioP1;P1;durP2;ratioP2;P2;SDS_P1;SDS_P2;PMS_P1;PMS_P2;Temp;Humidity;BMP_temperature;BMP_pressure;BME280_temperature;BME280_humidity;BME280_pressure;Samples;Min_cycle;Max_cycle;Signal;HPM_P1;HPM_P2
2022/08/12 00:42:52;;;;;;;5.37;2.70;;;15.90;99.90;;;;;;4213032;28;20032;-64
2022/08/12 00:44:53;;;;;;;8.02;2.78;;;16.00;99.90;;;;;;4213745;28;20261;-63
2022/08/12 00:46:58;;;;;;;6.43;2.50;;;16.00;99.90;;;;;;4212654;28;20024;-63
2022/08/12 00:49:01;;;;;;;10.15;3.67;;;16.00;99.90;;;;;;4213797;28;20036;-66
2022/08/12 00:51:05;;;;;;;5.30;2.65;;;16.00;99.90;;;;;;4212609;28;20032;-67
2022/08/12 00:53:08;;;;;;;5.60;2.65;;;16.00;99.90;;;;;;4213882;28;20085;-68
2022/08/12 00:55:09;;;;;;;4.97;3.25;;;16.00;99.90;;;;;;4212355;28;20020;-63
2022/08/12 00:57:24;;;;;;;6.47;3.13;;;16.00;99.90;;;;;;4213625;28;20081;-64
2022/08/12 00:59:25;;;;;;;3.90;2.45;;;15.90;99.90;;;;;;4212939;28;20036;-64
2022/08/12 01:01:27;;;;;;;4.90;2.30;;;16.00;99.90;;;;;;4213497;28;20028;-64
2022/08/12 01:11:27;;;;;;;5.32;3.00;;;15.90;99.90;;;;;;4211754;28;20082;-66
2022/08/12 01:12:58;;;;;;;5.00;2.50;;;15.90;99.90;;;;;;4212619;28;20339;-64
2022/08/12 01:15:00;;;;;;;3.92;2.63;;;15.90;99.90;;;;;;4213585;28;20074;-63
2022/08/12 01:17:02;;;;;;;5.55;2.72;;;15.90;99.90;;;;;;4212338;28;20032;-63
2022/08/12 01:19:04;;;;;;;4.20;2.20;;;15.80;99.90;;;;;;4212458;28;20044;-64
2022/08/12 01:21:08;;;;;;;6.13;2.45;;;15.70;99.90;;;;;;4211154;28;20028;-67
2022/08/12 01:23:40;;;;;;;3.05;2.42;;;15.60;99.90;;;;;;4213248;28;20020;-63
2022/08/12 01:25:44;;;;;;;8.18;2.47;;;15.60;99.90;;;;;;4212094;28;20036;-64
2022/08/12 01:27:48;;;;;;;6.53;2.53;;;15.50;99.90;;;;;;4212573;28;20051;-64
2022/08/12 01:29:52;;;;;;;5.55;2.25;;;15.40;99.90;;;;;;4212594;28;20028;-63
2022/08/12 01:31:57;;;;;;;3.83;2.95;;;15.40;99.90;;;;;;4212385;28;20439;-64
2022/08/12 01:34:13;;;;;;;2.42;2.20;;;15.40;99.90;;;;;;4212035;28;20073;-63
2022/08/12 01:36:17;;;;;;;7.38;2.70;;;15.40;99.90;;;;;;4213041;28;20353;-64
2022/08/12 01:38:22;;;;;;;5.68;2.25;;;15.40;99.90;;;;;;4211813;28;20549;-63
2022/08/12 01:40:29;;;;;;;5.00;2.08;;;15.40;99.90;;;;;;4212822;28;20077;-64
2022/08/12 01:42:45;;;;;;;4.28;2.63;;;15.40;99.90;;;;;;4211834;28;20085;-64
2022/08/12 01:44:48;;;;;;;3.72;2.00;;;15.40;99.90;;;;;;4211932;28;20048;-62
2022/08/12 01:47:02;;;;;;;4.70;2.05;;;15.30;99.90;;;;;;4211632;28;20425;-63
2022/08/12 01:49:14;;;;;;;4.57;2.35;;;15.30;99.90;;;;;;4212929;28;20031;-63
2022/08/12 01:51:41;;;;;;;3.83;2.17;;;15.30;99.90;;;;;;4211609;28;20020;-64
2022/08/12 01:54:03;;;;;;;2.22;2.03;;;15.10;99.90;;;;;;4201342;28;20048;-64
2022/08/12 01:56:05;;;;;;;4.68;2.20;;;15.00;99.90;;;;;;4210573;28;20036;-64
2022/08/12 01:58:20;;;;;;;6.70;2.40;;;14.90;99.90;;;;;;4212005;28;20385;-64
2022/08/12 02:00:21;;;;;;;2.45;2.25;;;14.80;99.90;;;;;;4211977;28;20086;-63
2022/08/12 02:02:38;;;;;;;2.60;2.40;;;14.60;99.90;;;;;;4212603;28;20369;-63
2022/08/12 02:13:22;;;;;;;3.83;2.55;;;14.60;99.90;;;;;;4211500;28;20028;-62
2022/08/12 02:15:48;;;;;;;7.38;2.53;;;14.50;99.90;;;;;;4211632;28;20040;-63
2022/08/12 02:18:22;;;;;;;3.30;2.10;;;14.60;99.90;;;;;;4210614;28;20040;-67
2022/08/12 02:20:24;;;;;;;2.55;2.03;;;14.70;99.90;;;;;;4211627;28;20066;-62
2022/08/12 02:22:30;;;;;;;9.25;3.28;;;14.70;99.90;;;;;;4211378;28;20434;-63
2022/08/12 02:24:36;;;;;;;7.47;3.53;;;14.70;99.90;;;;;;4211967;28;20028;-65
2022/08/12 02:26:39;;;;;;;6.47;3.10;;;14.80;99.90;;;;;;4211008;28;20024;-62
2022/08/12 02:28:40;;;;;;;4.70;2.85;;;14.70;99.90;;;;;;4193918;28;20029;-64
2022/08/12 02:30:42;;;;;;;2.60;2.38;;;14.70;99.90;;;;;;4210984;28;20061;-63
2022/08/12 02:32:45;;;;;;;2.58;2.28;;;14.80;99.90;;;;;;4211073;28;20035;-63
2022/08/12 02:34:46;;;;;;;2.80;2.22;;;14.70;99.90;;;;;;4210246;28;20102;-64
2022/08/12 02:36:50;;;;;;;4.65;2.80;;;14.80;99.90;;;;;;4212113;28;20032;-65
2022/08/12 02:38:54;;;;;;;2.83;2.47;;;14.80;99.90;;;;;;4210770;28;20032;-64
2022/08/12 02:40:57;;;;;;;5.63;3.25;;;14.90;99.90;;;;;;4211081;28;20089;-64
2022/08/12 02:43:11;;;;;;;5.88;3.30;;;14.90;99.90;;;;;;4209946;28;20119;-63
2022/08/12 02:45:18;;;;;;;4.38;2.85;;;14.80;99.90;;;;;;4211990;28;20046;-63
2022/08/12 02:47:23;;;;;;;10.70;2.97;;;14.70;99.90;;;;;;4211329;28;20074;-65
2022/08/12 02:49:34;;;;;;;9.55;3.00;;;14.50;99.90;;;;;;4211872;28;20089;-63
2022/08/12 02:51:41;;;;;;;10.98;3.53;;;14.50;99.90;;;;;;4210648;28;20035;-63
2022/08/12 02:53:43;;;;;;;14.43;3.50;;;14.40;99.90;;;;;;4212005;28;20023;-63
2022/08/12 02:55:45;;;;;;;14.80;3.80;;;14.40;99.90;;;;;;4209874;28;20048;-63
2022/08/12 02:57:49;;;;;;;8.95;3.30;;;14.40;99.90;;;;;;4211884;28;20028;-64
2022/08/12 02:59:51;;;;;;;7.05;2.85;;;14.40;99.90;;;;;;4209669;28;20101;-62
2022/08/12 03:01:58;;;;;;;15.18;3.67;;;14.40;99.90;;;;;;4211640;28;20032;-62
2022/08/12 03:04:03;;;;;;;5.45;3.30;;;14.40;99.90;;;;;;4210227;28;20032;-62
2022/08/12 03:06:17;;;;;;;5.93;4.30;;;14.40;99.90;;;;;;4210580;28;20040;-67
2022/08/12 03:08:23;;;;;;;7.32;3.30;;;14.50;99.90;;;;;;4210686;28;20016;-66
2022/08/12 03:10:28;;;;;;;6.38;3.20;;;14.40;99.90;;;;;;4211227;28;20132;-63
2022/08/12 03:12:42;;;;;;;13.02;3.15;;;14.50;99.90;;;;;;4210907;28;20024;-62
2022/08/12 03:14:43;;;;;;;18.98;11.02;;;14.50;99.90;;;;;;4211067;28;20044;-62
2022/08/12 03:16:53;;;;;;;7.78;4.60;;;14.60;99.90;;;;;;4211182;28;20027;-62
2022/08/12 03:18:55;;;;;;;10.48;4.07;;;14.60;99.90;;;;;;4211129;28;20437;-63
2022/08/12 03:20:58;;;;;;;6.40;3.00;;;14.60;99.90;;;;;;4201436;28;20570;-63
2022/08/12 03:23:01;;;;;;;7.22;2.78;;;14.70;99.90;;;;;;4209849;28;20032;-63
2022/08/12 03:25:04;;;;;;;5.50;3.08;;;14.70;99.90;;;;;;4209738;28;20040;-64
2022/08/12 03:27:09;;;;;;;3.42;2.60;;;14.80;99.90;;;;;;4210422;28;20032;-63
2022/08/12 03:29:11;;;;;;;3.63;2.55;;;14.90;99.90;;;;;;4211641;28;20066;-63
2022/08/12 03:31:12;;;;;;;8.80;2.80;;;15.00;99.90;;;;;;4210208;28;20040;-63
2022/08/12 03:33:15;;;;;;;7.80;2.55;;;15.20;99.90;;;;;;4211288;28;20438;-62
2022/08/12 03:35:25;;;;;;;5.28;2.78;;;15.30;99.90;;;;;;4209129;28;20305;-66
2022/08/12 03:37:29;;;;;;;7.57;2.85;;;15.50;99.90;;;;;;4210059;28;20044;-62
2022/08/12 03:41:58;;;;;;;3.38;2.40;;;16.00;99.90;;;;;;4211394;28;20077;-63
2022/08/12 04:00:48;;;;;;;4.30;2.83;;;17.30;99.90;;;;;;4213311;28;20040;-64
2022/08/12 04:03:50;;;;;;;5.35;2.30;;;17.20;99.90;;;;;;4214142;28;20032;-65
2022/08/12 04:05:25;;;;;;;5.30;2.15;;;17.20;99.90;;;;;;4212947;28;20036;-63
2022/08/12 04:07:26;;;;;;;3.42;2.05;;;17.40;99.90;;;;;;4212593;28;20039;-63
2022/08/12 04:09:28;;;;;;;3.30;2.47;;;17.90;99.90;;;;;;4212719;28;20044;-64
2022/08/12 04:13:50;;;;;;;4.80;2.10;;;18.80;99.90;;;;;;4213675;28;20541;-63
2022/08/12 04:15:51;;;;;;;7.22;3.22;;;19.40;99.90;;;;;;4214391;28;20036;-63
2022/08/12 04:17:53;;;;;;;8.07;2.75;;;19.70;99.90;;;;;;4213026;28;20036;-64
2022/08/12 04:19:57;;;;;;;4.63;2.20;;;20.00;99.90;;;;;;4213557;28;20500;-63
2022/08/12 04:22:00;;;;;;;2.72;2.42;;;20.40;99.90;;;;;;4213154;28;20078;-63
2022/08/12 04:24:03;;;;;;;3.03;2.28;;;20.70;99.90;;;;;;4213600;28;20534;-64
2022/08/12 04:26:05;;;;;;;4.28;2.20;;;21.10;99.90;;;;;;4211732;28;20039;-64
2022/08/12 04:28:07;;;;;;;3.95;2.58;;;21.50;99.90;;;;;;4213146;28;20094;-64
2022/08/12 04:30:10;;;;;;;8.65;2.92;;;21.70;99.90;;;;;;4213072;28;20472;-63
2022/08/12 04:32:11;;;;;;;5.68;2.38;;;21.60;99.90;;;;;;4213083;28;20020;-64
2022/08/12 04:34:12;;;;;;;3.33;2.30;;;21.50;99.90;;;;;;4213951;28;20842;-64
2022/08/12 04:36:13;;;;;;;7.05;2.63;;;21.80;99.90;;;;;;4212584;28;20040;-64
2022/08/12 04:38:16;;;;;;;8.75;2.85;;;22.00;99.90;;;;;;4214061;28;20028;-64
2022/08/12 04:40:18;;;;;;;6.93;2.67;;;22.00;99.90;;;;;;4212032;28;20040;-64
2022/08/12 04:42:20;;;;;;;4.95;2.85;;;21.90;99.90;;;;;;4213970;28;20102;-64
2022/08/12 04:44:21;;;;;;;5.15;2.30;;;21.80;99.90;;;;;;4212695;28;20036;-66
2022/08/12 04:46:23;;;;;;;9.20;2.20;;;21.90;99.90;;;;;;4213713;28;20040;-63
2022/08/12 04:48:24;;;;;;;3.10;2.20;;;22.30;99.90;;;;;;4194551;28;20044;-63
2022/08/12 04:50:26;;;;;;;7.22;2.65;;;23.00;99.90;;;;;;4213450;28;20763;-64
2022/08/12 04:52:27;;;;;;;4.80;2.50;;;23.60;99.90;;;;;;4211888;28;20086;-63
2022/08/12 04:54:29;;;;;;;5.70;2.40;;;23.90;99.90;;;;;;4212940;28;20032;-65
2022/08/12 04:56:31;;;;;;;4.65;2.78;;;24.50;99.90;;;;;;4212317;28;20032;-63
2022/08/12 04:58:33;;;;;;;19.58;5.80;;;25.00;99.90;;;;;;4213155;28;20024;-63
2022/08/12 05:00:35;;;;;;;28.05;6.22;;;25.40;99.90;;;;;;4211918;28;20052;-63
2022/08/12 05:02:37;;;;;;;18.70;4.78;;;25.40;99.40;;;;;;4212755;28;20074;-63
2022/08/12 05:04:39;;;;;;;17.90;5.18;;;25.50;99.20;;;;;;4212916;28;20040;-64
2022/08/12 05:06:41;;;;;;;12.10;4.50;;;25.30;99.10;;;;;;4212206;28;20061;-64
2022/08/12 05:08:42;;;;;;;12.73;5.28;;;25.00;99.10;;;;;;4215899;28;20073;-64
2022/08/12 05:10:45;;;;;;;27.42;5.95;;;24.90;99.10;;;;;;4229233;28;20077;-62
2022/08/12 05:12:53;;;;;;;28.25;7.32;;;25.00;99.10;;;;;;4229872;28;20032;-64
2022/08/12 05:14:54;;;;;;;19.05;7.53;;;24.90;98.50;;;;;;4227798;28;20015;-63
2022/08/12 05:16:56;;;;;;;24.02;6.93;;;24.90;98.70;;;;;;4228743;28;20040;-63
2022/08/12 05:18:58;;;;;;;18.90;7.38;;;25.20;98.40;;;;;;4228378;28;20048;-63
2022/08/12 05:20:59;;;;;;;19.00;6.18;;;25.60;97.90;;;;;;4727722;22;20526;-62
2022/08/12 05:23:08;;;;;;;26.08;5.68;;;25.90;97.50;;;;;;4229422;28;20036;-63
2022/08/12 05:25:10;;;;;;;14.35;5.25;;;26.40;96.60;;;;;;4229301;28;20039;-63
2022/08/12 05:27:12;;;;;;;13.13;5.25;;;27.00;96.30;;;;;;4229258;28;20364;-63
2022/08/12 05:29:13;;;;;;;13.25;5.35;;;27.20;95.60;;;;;;4228920;28;21074;-65
2022/08/12 05:31:16;;;;;;;17.23;5.60;;;27.00;95.20;;;;;;4229622;28;20024;-65
2022/08/12 05:33:17;;;;;;;14.27;5.35;;;27.20;95.10;;;;;;4228569;28;20028;-62
2022/08/12 05:35:18;;;;;;;14.35;5.78;;;26.90;94.90;;;;;;4229016;28;20039;-62
2022/08/12 05:37:21;;;;;;;10.90;4.72;;;26.50;95.00;;;;;;4228366;28;20470;-62
2022/08/12 05:39:22;;;;;;;11.00;5.00;;;26.50;95.20;;;;;;4227696;28;20047;-65
2022/08/12 05:41:30;;;;;;;15.98;4.85;;;26.90;94.90;;;;;;4228118;28;20028;-63
2022/08/12 05:43:33;;;;;;;21.00;5.03;;;26.60;94.20;;;;;;4229465;28;20085;-63
2022/08/12 05:45:34;;;;;;;12.52;4.05;;;26.10;94.70;;;;;;4228435;28;20355;-62
2022/08/12 05:47:35;;;;;;;12.07;3.92;;;25.40;95.10;;;;;;4229500;28;20024;-63
2022/08/12 05:49:39;;;;;;;7.10;3.28;;;24.70;95.60;;;;;;4228173;28;20048;-63
2022/08/12 05:51:41;;;;;;;13.73;2.78;;;24.90;95.80;;;;;;4229185;28;20020;-63
2022/08/12 05:53:42;;;;;;;6.78;3.63;;;24.90;95.90;;;;;;4228165;27;20023;-61
2022/08/12 05:55:43;;;;;;;9.43;2.60;;;25.20;95.40;;;;;;4228934;28;20084;-63
2022/08/12 05:57:47;;;;;;;4.30;2.50;;;24.90;95.20;;;;;;4228501;28;20027;-63
2022/08/12 05:59:48;;;;;;;6.82;3.00;;;25.00;95.30;;;;;;4228049;28;20093;-62
2022/08/12 06:01:50;;;;;;;15.05;2.90;;;25.00;95.30;;;;;;4228549;28;20495;-62
2022/08/12 06:03:51;;;;;;;7.78;2.22;;;25.50;95.00;;;;;;4228150;28;20019;-63
2022/08/12 06:05:55;;;;;;;4.82;1.90;;;25.10;94.80;;;;;;4228533;28;20076;-62
2022/08/12 06:07:57;;;;;;;6.03;2.22;;;24.80;95.10;;;;;;4227565;28;20069;-62
2022/08/12 06:09:59;;;;;;;7.15;1.85;;;24.40;95.60;;;;;;4228745;28;20048;-68
2022/08/12 06:12:00;;;;;;;2.38;1.75;;;24.40;95.60;;;;;;4226340;28;20039;-63
2022/08/12 06:14:02;;;;;;;1.30;1.20;;;24.20;95.60;;;;;;4228657;28;20057;-63
2022/08/12 06:16:08;;;;;;;4.50;1.83;;;23.80;95.70;;;;;;4227832;28;20039;-63
2022/08/12 06:18:12;;;;;;;9.30;2.08;;;23.30;96.40;;;;;;4228941;28;20421;-63
2022/08/12 06:20:14;;;;;;;3.67;1.27;;;22.90;96.90;;;;;;4227474;28;20031;-62
2022/08/12 06:22:16;;;;;;;1.70;1.60;;;22.80;97.20;;;;;;4228357;28;20372;-62
2022/08/12 06:24:19;;;;;;;2.05;1.75;;;22.90;97.20;;;;;;4227579;28;20520;-65
2022/08/12 06:26:20;;;;;;;2.95;1.35;;;23.10;96.80;;;;;;4228653;28;20051;-63
2022/08/12 06:28:22;;;;;;;1.60;1.50;;;23.10;96.70;;;;;;4227684;28;20065;-62
2022/08/12 06:30:27;;;;;;;3.88;1.83;;;22.90;96.80;;;;;;4228499;28;20036;-62
2022/08/12 06:32:28;;;;;;;3.58;1.65;;;22.80;97.00;;;;;;4227598;28;20020;-62
2022/08/12 06:34:30;;;;;;;2.42;1.33;;;22.90;96.90;;;;;;4227997;28;20076;-64
2022/08/12 06:36:32;;;;;;;4.90;1.67;;;22.70;97.30;;;;;;4227835;28;20019;-65
2022/08/12 06:38:33;;;;;;;1.80;1.67;;;22.90;97.20;;;;;;4227411;28;20036;-65
2022/08/12 06:42:55;;;;;;;1.33;1.25;;;22.80;97.10;;;;;;4227648;28;20028;-63
2022/08/12 06:44:56;;;;;;;2.95;1.83;;;22.80;96.90;;;;;;4228190;28;20040;-64
2022/08/12 06:46:57;;;;;;;3.03;2.15;;;22.80;97.10;;;;;;4227332;28;20077;-64
2022/08/12 06:48:58;;;;;;;1.90;1.30;;;22.90;97.10;;;;;;4228069;28;20085;-63
2022/08/12 06:51:02;;;;;;;1.55;1.40;;;23.20;96.90;;;;;;4226891;28;20016;-64
2022/08/12 06:53:04;;;;;;;2.03;1.30;;;23.20;96.80;;;;;;4227725;28;20105;-65
2022/08/12 06:55:06;;;;;;;1.58;1.40;;;23.00;97.00;;;;;;4226945;28;20031;-67
2022/08/12 06:57:07;;;;;;;3.55;1.45;;;23.20;97.10;;;;;;4227627;28;20073;-65
2022/08/12 06:59:10;;;;;;;3.45;2.90;;;23.50;96.80;;;;;;4226553;28;20473;-62
2022/08/12 07:01:11;;;;;;;5.40;2.22;;;23.50;96.60;;;;;;4228062;28;20081;-65
2022/08/12 07:03:17;;;;;;;1.50;1.10;;;23.90;96.30;;;;;;4227198;28;20031;-63
2022/08/12 07:05:23;;;;;;;1.52;1.42;;;23.90;96.10;;;;;;4228069;28;20076;-65
2022/08/12 07:07:24;;;;;;;5.47;1.70;;;24.10;95.70;;;;;;4226745;28;20036;-63
2022/08/12 07:09:26;;;;;;;2.15;1.65;;;24.10;95.60;;;;;;4228020;28;20069;-63
2022/08/12 07:11:28;;;;;;;5.80;1.33;;;24.10;95.60;;;;;;4227019;28;20102;-63
2022/08/12 07:13:41;;;;;;;3.80;1.83;;;24.00;95.70;;;;;;4227724;28;20119;-63
2022/08/12 07:15:44;;;;;;;4.82;1.00;;;24.20;95.30;;;;;;4227076;28;20028;-64
2022/08/12 07:17:45;;;;;;;4.47;1.50;;;24.20;95.30;;;;;;4226903;28;20031;-65
2022/08/12 07:19:47;;;;;;;1.83;1.10;;;24.50;95.00;;;;;;4226861;28;20051;-63
2022/08/12 07:21:48;;;;;;;3.40;1.33;;;24.70;94.70;;;;;;4226864;28;20043;-63
2022/08/12 07:23:49;;;;;;;4.70;1.45;;;25.30;94.60;;;;;;4228017;28;20436;-63
2022/08/12 07:25:50;;;;;;;3.83;1.58;;;25.40;94.20;;;;;;4226818;28;20119;-64
2022/08/12 07:27:56;;;;;;;2.53;1.63;;;25.30;94.10;;;;;;4227890;28;20028;-63
2022/08/12 07:29:57;;;;;;;3.42;1.70;;;25.30;94.30;;;;;;4226668;28;20092;-63
2022/08/12 07:31:58;;;;;;;3.03;1.60;;;25.20;94.30;;;;;;4227796;28;20547;-68
2022/08/12 07:34:00;;;;;;;4.30;1.55;;;25.50;94.30;;;;;;4226530;28;20024;-63
2022/08/12 07:36:01;;;;;;;2.10;1.75;;;25.40;94.10;;;;;;4227602;28;20031;-63
2022/08/12 07:38:02;;;;;;;6.20;1.50;;;25.40;94.10;;;;;;4226395;28;20386;-63
2022/08/12 07:40:04;;;;;;;3.97;1.63;;;25.70;94.20;;;;;;4226451;28;20109;-62
2022/08/12 07:42:05;;;;;;;4.50;1.48;;;26.20;94.10;;;;;;4226692;28;20024;-68
2022/08/12 07:44:08;;;;;;;2.88;1.27;;;26.80;93.60;;;;;;4227401;28;20081;-63
2022/08/12 07:46:13;;;;;;;6.20;1.30;;;26.90;93.00;;;;;;4227128;28;20032;-68
2022/08/12 07:48:15;;;;;;;3.95;1.40;;;26.80;92.80;;;;;;4227317;28;20516;-65
2022/08/12 07:50:18;;;;;;;6.88;1.27;;;26.90;92.90;;;;;;4225527;28;20028;-63
2022/08/12 07:52:19;;;;;;;2.53;1.40;;;27.10;92.60;;;;;;4226930;28;20085;-63
2022/08/12 07:54:21;;;;;;;3.70;1.17;;;27.10;92.50;;;;;;4227364;28;20474;-65
2022/08/12 07:56:22;;;;;;;4.60;1.58;;;27.40;92.50;;;;;;4226720;28;20031;-65
2022/08/12 07:58:24;;;;;;;6.45;1.23;;;27.60;92.20;;;;;;4227377;28;20024;-65
2022/08/12 08:00:30;;;;;;;1.95;1.15;;;27.60;91.90;;;;;;4224834;28;20039;-65
2022/08/12 08:02:32;;;;;;;1.60;1.17;;;27.90;91.80;;;;;;4227352;28;20088;-66
2022/08/12 08:06:53;;;;;;;1.65;0.98;;;28.20;91.50;;;;;;4227223;28;20035;-63
2022/08/12 08:08:55;;;;;;;2.50;1.30;;;28.30;91.00;;;;;;4226205;28;20024;-63
2022/08/12 08:13:19;;;;;;;2.50;1.50;;;27.40;90.90;;;;;;4226588;28;20032;-63
2022/08/12 08:15:35;;;;;;;2.75;1.52;;;26.70;91.00;;;;;;4227334;28;20089;-63
2022/08/12 08:17:37;;;;;;;4.40;1.52;;;26.40;91.10;;;;;;4226287;28;20028;-67
2022/08/12 08:19:38;;;;;;;5.38;1.20;;;26.10;91.40;;;;;;4227282;28;20478;-63
2022/08/12 08:21:40;;;;;;;3.42;1.45;;;25.90;91.60;;;;;;4225742;28;20093;-63
2022/08/12 08:26:01;;;;;;;4.13;1.33;;;25.90;91.50;;;;;;4226791;28;20028;-63
2022/08/12 08:28:05;;;;;;;2.70;1.48;;;26.20;91.40;;;;;;4227337;28;20077;-63
2022/08/12 08:30:10;;;;;;;6.85;1.60;;;26.50;91.10;;;;;;4227466;28;20031;-63
2022/08/12 08:32:12;;;;;;;5.55;1.08;;;26.50;91.00;;;;;;4230365;28;20020;-63
2022/08/12 08:34:14;;;;;;;3.33;1.38;;;26.50;90.90;;;;;;4229320;28;20077;-63
2022/08/12 08:36:16;;;;;;;3.13;1.55;;;26.50;91.00;;;;;;4229561;28;20080;-63
2022/08/12 08:38:17;;;;;;;3.78;1.27;;;26.60;90.80;;;;;;4228912;28;20431;-63
2022/08/12 08:42:39;;;;;;;4.38;1.02;;;26.30;90.70;;;;;;4229396;28;20031;-63
2022/08/12 08:44:40;;;;;;;1.92;1.15;;;26.30;90.70;;;;;;4229931;28;20035;-64
2022/08/12 08:46:46;;;;;;;2.58;1.10;;;26.40;90.40;;;;;;4229199;28;20441;-63
2022/08/12 08:48:47;;;;;;;4.88;1.50;;;26.40;90.20;;;;;;4229729;28;20024;-63
2022/08/12 08:50:48;;;;;;;1.30;1.20;;;26.40;90.30;;;;;;4229442;28;20027;-63
2022/08/12 08:52:49;;;;;;;2.10;1.35;;;26.40;90.20;;;;;;4229392;28;20035;-63
2022/08/12 08:54:50;;;;;;;5.07;1.50;;;26.30;90.40;;;;;;4229027;28;20088;-65
2022/08/12 08:56:52;;;;;;;7.20;1.50;;;26.40;90.30;;;;;;4228746;28;20081;-64
2022/08/12 08:58:53;;;;;;;3.00;1.30;;;26.30;90.20;;;;;;4229814;28;20027;-62
2022/08/12 09:00:55;;;;;;;3.45;1.15;;;26.20;90.30;;;;;;4228592;28;20104;-63
2022/08/12 09:02:56;;;;;;;2.78;1.20;;;26.20;90.20;;;;;;4229879;28;20097;-67
2022/08/12 09:04:57;;;;;;;3.50;1.00;;;26.30;90.10;;;;;;4228541;28;20547;-63
2022/08/12 09:07:00;;;;;;;2.47;1.15;;;26.30;90.00;;;;;;4229900;28;20381;-62
2022/08/12 09:09:04;;;;;;;3.65;1.05;;;26.20;89.80;;;;;;4228849;28;20103;-65
2022/08/12 09:13:28;;;;;;;7.18;1.48;;;26.20;89.80;;;;;;4229026;28;20028;-63
2022/08/12 09:15:30;;;;;;;1.15;1.02;;;26.50;89.70;;;;;;4229716;28;20044;-62
2022/08/12 09:17:32;;;;;;;5.60;1.50;;;26.50;89.20;;;;;;4228697;28;20027;-63
2022/08/12 09:19:33;;;;;;;3.13;1.33;;;26.60;88.80;;;;;;4229826;28;20028;-62
2022/08/12 09:21:35;;;;;;;1.15;0.80;;;26.40;88.10;;;;;;4228233;28;20156;-63
2022/08/12 09:23:36;;;;;;;1.08;0.98;;;26.40;88.50;;;;;;4229336;28;20043;-64
2022/08/12 09:25:39;;;;;;;1.88;1.05;;;26.20;87.60;;;;;;4228724;28;20501;-64
2022/08/12 09:27:41;;;;;;;1.40;1.30;;;25.90;87.30;;;;;;4228945;28;20080;-63
2022/08/12 09:29:44;;;;;;;2.15;0.90;;;25.80;87.30;;;;;;4229208;28;20024;-64
2022/08/12 09:31:46;;;;;;;2.58;1.20;;;25.80;87.50;;;;;;4227419;28;20101;-64
2022/08/12 09:33:49;;;;;;;2.63;1.10;;;25.60;87.70;;;;;;4229205;27;20040;-63
2022/08/12 09:35:50;;;;;;;2.28;0.95;;;25.60;88.10;;;;;;4228381;28;20061;-63
2022/08/12 09:37:54;;;;;;;1.73;0.70;;;25.70;87.70;;;;;;4229610;28;20081;-63
2022/08/12 09:39:55;;;;;;;3.38;0.70;;;25.80;86.00;;;;;;4228230;28;20520;-65
2022/08/12 09:46:36;;;;;;;1.15;1.00;;;25.90;86.10;;;;;;4229124;28;20035;-63
2022/08/12 09:48:37;;;;;;;0.52;0.50;;;25.80;86.10;;;;;;4227935;28;20036;-63
2022/08/12 09:50:39;;;;;;;1.33;1.00;;;25.90;85.10;;;;;;4229213;28;20084;-63
2022/08/12 09:52:40;;;;;;;0.90;0.90;;;26.00;84.20;;;;;;4227912;28;20065;-65
2022/08/12 09:54:41;;;;;;;0.80;0.80;;;26.10;83.90;;;;;;4229247;28;20069;-63
2022/08/12 09:56:46;;;;;;;1.80;0.93;;;26.20;83.50;;;;;;4227958;28;20024;-63
2022/08/12 09:58:49;;;;;;;1.05;0.77;;;26.40;83.70;;;;;;4229218;28;20028;-67
2022/08/12 10:00:50;;;;;;;1.55;1.42;;;26.40;84.10;;;;;;4227826;28;20093;-63
2022/08/12 10:03:20;;;;;;;3.30;1.00;;;26.70;84.40;;;;;;4229160;27;20437;-66
2022/08/12 10:05:21;;;;;;;2.97;1.73;;;26.70;83.70;;;;;;4225944;28;20589;-63
2022/08/12 10:07:22;;;;;;;2.88;1.40;;;26.80;84.20;;;;;;4228612;28;20494;-63
2022/08/12 10:09:24;;;;;;;2.83;1.20;;;27.00;84.10;;;;;;4227695;28;20027;-62
2022/08/12 10:13:45;;;;;;;1.33;1.20;;;26.70;83.80;;;;;;4228629;28;20027;-63
2022/08/12 10:15:46;;;;;;;2.17;1.50;;;26.60;83.80;;;;;;4228869;28;20076;-63
2022/08/12 10:17:47;;;;;;;2.05;1.10;;;26.50;83.80;;;;;;4227659;28;20097;-64
2022/08/12 10:19:51;;;;;;;2.25;0.70;;;26.50;84.20;;;;;;4228351;28;20020;-62
2022/08/12 10:21:53;;;;;;;0.70;0.65;;;26.70;83.40;;;;;;4227558;28;20433;-62
2022/08/12 10:23:55;;;;;;;0.85;0.70;;;26.70;83.60;;;;;;4227863;28;20035;-62
2022/08/12 10:30:36;;;;;;;1.55;1.30;;;26.40;83.40;;;;;;4227754;28;20284;-63
2022/08/12 10:32:37;;;;;;;0.93;0.88;;;26.70;82.80;;;;;;4227886;28;20097;-63
2022/08/12 10:34:41;;;;;;;3.65;0.98;;;26.80;82.60;;;;;;4227981;28;20015;-63
2022/08/12 10:36:43;;;;;;;0.80;0.80;;;27.10;82.70;;;;;;4227529;28;20532;-65
2022/08/12 10:38:46;;;;;;;1.38;0.85;;;27.40;82.60;;;;;;4228014;28;20054;-63
2022/08/12 10:45:26;;;;;;;1.10;0.68;;;26.90;80.90;;;;;;4227517;28;20077;-64
2022/08/12 10:47:31;;;;;;;1.38;0.82;;;26.80;80.70;;;;;;4227751;28;20390;-67
2022/08/12 10:49:33;;;;;;;0.60;0.60;;;26.80;80.40;;;;;;4227485;28;20024;-63
2022/08/12 10:51:34;;;;;;;0.68;0.65;;;26.70;79.90;;;;;;4228018;28;20433;-63
2022/08/12 10:53:35;;;;;;;0.77;0.70;;;26.70;79.80;;;;;;4226697;28;20084;-64
2022/08/12 10:55:36;;;;;;;1.50;1.08;;;26.80;79.60;;;;;;4228205;28;20450;-64
2022/08/12 10:57:38;;;;;;;1.60;0.70;;;26.90;79.30;;;;;;4227235;28;20467;-63
2022/08/12 10:59:39;;;;;;;7.43;4.68;;;26.90;79.00;;;;;;4228341;28;20057;-64
2022/08/12 11:01:41;;;;;;;6.28;4.15;;;27.00;79.10;;;;;;4227066;28;20105;-62
2022/08/12 11:03:42;;;;;;;2.75;0.85;;;27.00;78.30;;;;;;4227898;28;20031;-63
2022/08/12 11:05:44;;;;;;;0.98;0.80;;;27.20;78.50;;;;;;4227102;28;20031;-68
2022/08/12 11:07:47;;;;;;;1.95;1.42;;;27.50;78.10;;;;;;4228083;28;20027;-65
2022/08/12 11:09:48;;;;;;;1.52;0.80;;;27.50;77.60;;;;;;4226887;28;20024;-65
2022/08/12 11:11:49;;;;;;;1.83;1.20;;;27.50;77.50;;;;;;4227720;28;20100;-64
2022/08/12 11:13:50;;;;;;;1.13;0.63;;;27.60;77.20;;;;;;4226965;28;20471;-62
2022/08/12 11:15:54;;;;;;;0.80;0.68;;;27.50;77.00;;;;;;4227435;28;20089;-63
2022/08/12 11:17:55;;;;;;;2.05;0.95;;;27.40;76.90;;;;;;4227164;28;20112;-62
2022/08/12 11:19:56;;;;;;;1.15;0.82;;;27.30;76.70;;;;;;4225940;28;20045;-66
2022/08/12 11:21:58;;;;;;;2.15;0.82;;;27.10;76.80;;;;;;4227191;28;20456;-67
2022/08/12 11:23:59;;;;;;;0.60;0.55;;;27.10;76.50;;;;;;4226288;28;20811;-62
2022/08/12 11:26:01;;;;;;;0.70;0.70;;;27.10;76.30;;;;;;4227720;28;20382;-62
2022/08/12 11:28:02;;;;;;;2.08;0.80;;;27.00;76.20;;;;;;4226604;28;20043;-62
2022/08/12 11:30:03;;;;;;;2.13;0.90;;;27.00;76.60;;;;;;4227737;28;20020;-65
2022/08/12 11:32:05;;;;;;;2.63;1.25;;;27.00;76.10;;;;;;4226132;28;20027;-62
2022/08/12 11:34:06;;;;;;;0.70;0.70;;;27.00;75.90;;;;;;4227515;28;20140;-65
2022/08/12 11:36:07;;;;;;;1.58;0.85;;;27.20;75.40;;;;;;4226503;28;20044;-65
2022/08/12 11:38:10;;;;;;;2.80;0.68;;;27.20;74.90;;;;;;4227751;28;20050;-66
2022/08/12 11:40:11;;;;;;;0.68;0.68;;;27.30;75.20;;;;;;4226201;28;20081;-64
2022/08/12 11:42:12;;;;;;;0.63;0.50;;;27.30;75.30;;;;;;4227463;28;20451;-63
2022/08/12 11:44:14;;;;;;;0.88;0.57;;;27.50;75.50;;;;;;4226676;28;20619;-63
2022/08/12 11:46:17;;;;;;;0.80;0.80;;;27.60;75.40;;;;;;4226959;28;20024;-64
2022/08/12 11:48:19;;;;;;;1.17;0.70;;;27.70;75.30;;;;;;4226482;28;20085;-65
2022/08/12 11:50:21;;;;;;;1.85;0.65;;;27.70;74.80;;;;;;4226830;28;20028;-63
2022/08/12 11:52:23;;;;;;;0.98;0.55;;;27.30;74.30;;;;;;4225631;28;20035;-63
2022/08/12 11:54:24;;;;;;;2.13;1.00;;;27.30;75.00;;;;;;4226099;28;20065;-63
2022/08/12 11:56:25;;;;;;;0.60;0.60;;;27.30;75.10;;;;;;4227622;28;20077;-64
2022/08/12 11:58:26;;;;;;;2.33;1.52;;;27.20;74.40;;;;;;4225209;28;20653;-65
2022/08/12 12:00:28;;;;;;;5.15;1.40;;;27.20;74.60;;;;;;4227684;28;20536;-63
2022/08/12 12:02:29;;;;;;;1.10;0.68;;;27.30;74.40;;;;;;4226460;28;20036;-63
2022/08/12 12:04:30;;;;;;;0.50;0.50;;;27.30;73.90;;;;;;4228049;28;20552;-63
2022/08/12 12:06:31;;;;;;;0.98;0.63;;;27.30;73.60;;;;;;4229398;28;20441;-65
2022/08/12 12:08:32;;;;;;;1.35;0.57;;;27.20;73.60;;;;;;4230968;28;20028;-63
2022/08/12 12:10:33;;;;;;;1.38;0.60;;;27.20;73.50;;;;;;4229845;28;20031;-64
2022/08/12 12:12:35;;;;;;;1.58;0.70;;;27.40;73.60;;;;;;4230841;28;20028;-63
2022/08/12 12:14:36;;;;;;;0.90;0.45;;;27.50;73.50;;;;;;4229843;28;20080;-64
2022/08/12 12:16:37;;;;;;;0.93;0.75;;;27.60;73.20;;;;;;4230652;28;20020;-67
2022/08/12 12:18:38;;;;;;;0.63;0.43;;;27.60;73.10;;;;;;4229550;28;20088;-64
2022/08/12 12:20:40;;;;;;;2.15;0.68;;;27.60;73.10;;;;;;4230232;28;20043;-68
2022/08/12 12:22:41;;;;;;;1.85;0.70;;;27.50;73.20;;;;;;4229975;28;20039;-64
2022/08/12 12:24:45;;;;;;;2.20;0.57;;;27.50;73.10;;;;;;4227970;28;20036;-63
2022/08/12 12:26:46;;;;;;;2.20;1.40;;;27.50;73.00;;;;;;4228632;28;20035;-63
2022/08/12 12:28:47;;;;;;;1.00;0.90;;;27.70;73.00;;;;;;4228986;28;20536;-64
2022/08/12 12:30:48;;;;;;;7.75;3.60;;;27.90;73.10;;;;;;4230513;28;20494;-63